Date,TemperatureHighF,TemperatureAvgF,TemperatureLowF,DewpointHighF,DewpointAvgF,DewpointLowF,HumidityHigh,HumidityAvg,HumidityLow,PressureMaxIn,PressureMinIn,WindSpeedMaxMPH,WindSpeedAvgMPH,GustSpeedMaxMPH,PrecipitationSumIn
2013-1-1,30,23,11,26,14,1,89,67,52,29.89,29.65,12,2,13,0.00
2013-1-2,22,11,0,12,2,-9,81,67,55,30.09,29.87,9,2,12,0.00
2013-1-3,16,6,-2,3,-5,-9,74,61,42,30.12,29.98,5,1,9,0.00
2013-1-4,34,24,10,23,17,5,93,76,61,29.96,29.77,5,1,8,0.00
2013-1-5,34,29,19,25,18,13,84,66,45,30.23,29.78,14,2,16,0.00
2013-1-6,37,27,18,28,22,13,91,80,68,30.18,29.91,3,0,7,0.00
2013-1-7,32,27,19,30,18,10,91,71,49,30.37,29.93,6,1,10,0.00
2013-1-8,41,30,17,25,20,13,89,70,50,30.35,30.23,4,1,8,0.00
2013-1-9,40,31,24,31,25,20,93,78,66,30.38,29.95,2,0,9,0.00
2013-1-10,41,37,29,30,25,22,77,64,53,30.51,29.97,12,3,18,0.03
2013-1-11,36,31,24,33,26,21,98,82,62,30.50,30.21,3,0,6,0.09
2013-1-12,39,36,33,39,36,33,99,99,98,30.21,30.10,2,0,2,0.09
2013-1-13,45,40,35,45,40,35,100,100,99,30.13,29.94,1,0,5,0.00
2013-1-14,55,44,34,51,38,26,100,83,50,30.23,29.83,4,1,10,0.00
2013-1-15,37,32,29,26,24,22,85,72,58,30.29,30.20,4,1,7,0.00
2013-1-16,29,28,27,28,26,22,97,93,75,30.23,29.78,1,0,2,0.00
2013-1-17,36,28,20,32,22,5,98,78,53,30.09,29.78,4,1,11,0.06
2013-1-18,19,13,6,4,-3,-11,70,49,35,30.40,30.03,6,1,12,0.00
2013-1-19,41,30,14,26,19,5,75,63,48,30.33,29.82,4,1,9,0.01
2013-1-20,48,35,22,31,22,4,85,62,32,29.89,29.49,7,2,17,0.08
2013-1-21,24,19,13,16,6,-2,92,58,41,30.03,29.78,7,1,11,0.00
2013-1-22,21,15,2,16,7,-7,93,73,33,30.03,29.74,11,1,12,0.00
2013-1-23,6,1,-4,-1,-10,-16,83,60,41,30.12,30.02,6,2,11,0.00
2013-1-24,12,2,-7,-8,-14,-18,62,49,34,30.20,30.05,11,4,19,0.00
2013-1-25,16,9,1,6,-6,-9,79,52,34,30.28,30.06,13,2,16,0.00
2013-1-26,18,11,6,7,-1,-8,86,61,33,30.20,30.00,8,2,15,0.00
2013-1-27,24,15,9,2,-3,-9,73,48,28,30.45,30.18,9,2,13,0.00
2013-1-28,24,18,13,19,7,-6,93,65,38,30.44,30.03,5,1,7,0.00
2013-1-29,32,25,17,30,23,15,97,91,82,30.20,30.04,2,0,3,0.01
2013-1-30,53,40,30,53,40,30,100,99,98,30.14,29.41,3,1,7,0.17
2013-1-31,57,43,27,57,34,9,100,73,44,29.48,28.86,14,3,20,0.63
2013-2-1,27,23,16,18,10,5,86,58,43,30.03,29.49,6,2,13,0.00
2013-2-2,24,19,10,13,6,3,75,59,45,30.19,30.02,3,1,6,0.00
2013-2-3,25,21,15,17,15,12,91,78,64,30.03,29.70,3,0,5,0.00
2013-2-4,26,21,15,16,7,1,83,58,39,29.87,29.68,9,2,17,0.00
2013-2-5,25,17,9,14,5,1,76,61,43,30.01,29.87,5,0,6,0.00
2013-2-6,34,24,16,23,15,-4,94,71,40,30.28,29.92,6,1,10,0.01
2013-2-7,21,16,9,1,-4,-8,56,43,29,30.51,30.28,5,1,10,0.00
2013-2-8,19,15,12,14,11,4,92,83,52,30.49,29.78,8,3,13,0.00
2013-2-9,17,14,12,16,10,1,94,86,61,30.18,29.70,12,5,18,0.00
2013-2-10,33,21,10,4,0,-3,60,42,25,30.39,30.19,6,2,14,0.00
2013-2-11,34,25,18,34,19,0,99,79,44,30.33,29.60,3,0,6,0.00
2013-2-12,41,35,31,34,29,27,98,79,58,29.82,29.57,8,1,14,0.04
2013-2-13,38,32,27,27,22,19,78,67,53,29.82,29.71,5,1,8,0.02
2013-2-14,38,32,28,23,20,19,82,65,49,29.96,29.69,5,1,9,0.00
2013-2-15,49,35,24,32,25,21,90,69,45,29.96,29.87,4,1,8,0.00
2013-2-16,37,32,25,29,22,10,95,69,52,29.93,29.73,4,1,8,0.02
2013-2-17,25,17,12,13,6,1,89,62,46,29.72,29.34,13,5,23,0.00
2013-2-18,26,18,10,2,-2,-6,66,44,25,30.11,29.62,16,4,21,0.00
2013-2-19,40,29,15,36,16,-4,98,60,37,30.15,29.55,4,0,5,0.18
2013-2-20,36,29,22,36,21,14,98,73,57,29.71,29.49,8,2,15,0.20
2013-2-21,25,21,18,15,12,8,80,67,56,30.19,29.71,9,3,16,0.00
2013-2-22,37,29,20,24,19,15,84,69,47,30.39,30.20,6,1,11,0.00
2013-2-23,33,30,26,31,28,22,98,90,79,30.31,29.95,3,1,5,0.00
2013-2-24,32,30,28,32,30,27,99,98,96,29.94,29.73,2,0,3,0.00
2013-2-25,37,31,26,34,30,25,98,95,89,30.21,29.89,1,0,4,0.20
2013-2-26,38,33,30,34,31,29,99,93,80,30.33,30.17,3,1,5,0.26
2013-2-27,36,32,30,35,31,29,99,96,88,30.18,29.60,11,2,11,0.26
2013-2-28,42,35,30,37,33,29,99,93,80,29.61,29.52,2,1,6,0.22
2013-3-1,36,33,30,32,29,27,99,85,72,29.66,29.51,4,1,9,0.02
2013-3-2,41,33,28,29,26,25,92,77,62,29.65,29.60,5,2,8,0.00
2013-3-3,38,30,26,31,26,24,94,85,70,29.63,29.54,6,2,9,0.01
2013-3-4,34,28,26,27,23,21,86,79,71,29.75,29.57,13,4,16,0.00
2013-3-5,42,33,25,31,26,20,87,75,58,30.07,29.75,7,2,11,0.00
2013-3-6,36,33,30,32,29,26,96,85,70,30.17,30.06,8,3,15,0.00
2013-3-7,33,30,28,28,26,24,96,87,75,30.14,30.02,8,3,11,0.00
2013-3-8,45,35,27,27,22,17,96,65,34,30.18,29.99,5,2,9,0.13
2013-3-9,54,38,28,28,19,5,92,53,14,30.34,30.16,4,1,7,0.00
2013-3-10,45,34,25,30,28,23,95,78,54,30.39,30.27,4,1,5,0.00
2013-3-11,49,38,29,37,32,28,97,78,53,30.30,30.11,3,1,6,0.00
2013-3-12,49,44,37,49,43,36,100,99,92,30.12,29.69,4,1,8,0.28
2013-3-13,46,40,31,46,31,23,100,74,48,29.74,29.67,6,2,10,0.29
2013-3-14,33,27,17,24,16,5,81,64,48,29.80,29.65,10,2,15,0.00
2013-3-15,36,24,14,28,12,2,95,63,34,29.82,29.60,8,2,14,0.00
2013-3-16,32,27,22,26,14,10,92,61,43,29.88,29.68,7,1,8,0.01
2013-3-17,30,24,18,13,7,-1,77,51,32,30.30,29.87,9,2,15,0.00
2013-3-18,34,24,13,22,5,-2,78,47,25,30.44,30.24,3,1,9,0.00
2013-3-19,31,27,22,30,26,21,97,95,86,30.24,29.68,7,2,12,0.00
2013-3-20,34,27,22,24,21,17,96,78,59,29.76,29.66,5,1,12,0.01
2013-3-21,38,28,21,20,16,12,82,63,36,29.76,29.59,3,0,6,0.09
2013-3-22,37,30,24,25,18,14,81,62,42,29.69,29.59,5,2,10,0.01
2013-3-23,40,31,21,22,19,16,85,63,40,29.73,29.59,10,2,17,0.00
2013-3-24,42,36,30,25,23,22,76,61,47,29.79,29.72,7,2,14,0.00
2013-3-25,41,35,28,30,26,22,78,70,57,29.77,29.54,5,2,7,0.00
2013-3-26,46,38,32,28,22,18,82,56,33,29.75,29.56,6,2,8,0.00
2013-3-27,48,39,31,33,25,22,90,60,41,29.86,29.73,7,2,12,0.00
2013-3-28,46,39,34,34,32,30,95,77,56,30.00,29.86,4,1,8,0.02
2013-3-29,51,43,38,35,33,30,80,67,48,30.02,29.96,7,2,9,0.00
2013-3-30,52,42,36,32,23,12,80,50,25,30.07,29.99,5,2,9,0.00
2013-3-31,57,42,27,38,22,13,93,48,26,30.09,29.77,7,1,12,0.02
2013-4-1,57,41,30,43,33,12,98,76,38,29.75,29.47,9,2,16,0.32
2013-4-2,34,29,25,19,12,8,58,48,36,29.86,29.73,8,2,16,0.00
2013-4-3,41,32,25,17,10,5,64,42,23,30.10,29.86,11,3,15,0.00
2013-4-4,52,39,27,22,15,10,59,40,20,30.25,29.97,4,2,12,0.00
2013-4-5,57,43,34,28,24,18,76,50,24,29.96,29.64,7,2,12,0.00
2013-4-6,40,32,25,19,7,1,59,37,20,30.31,29.85,9,3,16,0.00
2013-4-7,54,42,27,36,21,3,79,46,27,30.31,29.94,6,2,13,0.00
2013-4-8,59,48,40,39,35,28,94,63,32,30.09,29.92,7,1,10,0.00
2013-4-9,59,49,41,48,42,37,97,77,55,30.06,29.86,5,1,9,0.10
2013-4-10,56,48,43,49,45,40,99,90,68,29.98,29.84,3,0,5,0.30
2013-4-11,45,42,37,45,34,22,98,77,45,30.14,29.84,6,1,8,0.22
2013-4-12,38,32,30,32,28,20,98,87,50,30.19,29.83,7,2,7,0.03
2013-4-13,49,39,31,39,34,31,98,84,62,29.92,29.78,2,1,6,0.10
2013-4-14,48,42,36,39,33,27,97,74,48,30.19,29.89,8,1,14,0.01
2013-4-15,57,43,29,36,32,28,94,69,37,30.36,30.19,5,1,8,0.00
2013-4-16,65,49,36,52,41,33,92,76,49,30.37,30.00,6,2,12,0.02
2013-4-17,60,53,42,53,34,27,91,53,30,30.32,30.01,6,2,13,0.00
2013-4-18,60,49,37,41,31,25,72,51,35,30.42,30.12,5,2,10,0.00
2013-4-19,72,61,49,62,55,42,97,82,62,30.12,29.58,6,2,15,0.00
2013-4-20,63,48,38,62,36,21,98,68,40,30.18,29.56,6,2,13,0.46
2013-4-21,49,39,32,25,18,14,73,45,25,30.66,30.19,8,2,10,0.00
2013-4-22,50,40,31,32,24,16,91,56,31,30.75,30.61,6,2,11,0.00
2013-4-23,39,35,30,38,33,28,98,93,88,30.60,30.15,3,1,6,0.00
2013-4-24,74,56,39,52,44,38,98,69,28,30.14,29.74,3,1,7,0.00
2013-4-25,59,52,44,51,34,24,94,53,29,30.26,29.73,8,2,17,0.04
2013-4-26,62,48,39,34,29,23,68,49,33,30.40,30.27,5,1,7,0.00
2013-4-27,66,50,36,37,33,30,82,55,28,30.41,30.25,5,1,8,0.00
2013-4-28,70,53,38,40,36,34,85,57,28,30.31,30.18,6,1,10,0.00
2013-4-29,71,56,42,44,37,30,71,52,35,30.24,30.14,4,1,7,0.00
2013-4-30,71,58,46,36,31,26,54,38,24,30.34,30.22,5,1,7,0.00
2013-5-1,74,56,40,37,32,22,67,43,19,30.44,30.34,5,1,6,0.00
2013-5-2,78,56,43,45,36,27,75,52,22,30.48,30.32,6,1,9,0.00
2013-5-3,64,51,39,45,40,35,88,68,46,30.51,30.36,5,1,7,0.00
2013-5-4,68,51,37,45,40,34,97,69,34,30.36,30.25,5,1,7,0.00
2013-5-5,68,49,34,41,37,33,98,69,30,30.32,30.21,4,1,8,0.00
2013-5-6,74,53,36,47,40,26,97,68,18,30.25,30.11,3,1,6,0.00
2013-5-7,81,62,45,57,47,31,99,66,18,30.15,30.04,3,0,6,0.00
2013-5-8,72,62,53,61,57,52,99,86,62,30.18,30.02,4,1,11,0.12
2013-5-9,61,58,54,60,57,54,100,98,91,30.02,29.87,2,0,3,0.32
2013-5-10,79,64,55,60,56,54,100,78,44,29.93,29.86,2,0,7,0.00
2013-5-11,64,60,56,63,59,54,100,96,90,29.86,29.66,4,0,9,0.35
2013-5-12,67,57,46,60,48,27,100,74,43,29.75,29.54,5,1,9,0.03
2013-5-13,54,46,38,32,30,27,73,55,39,30.02,29.75,5,1,15,0.00
2013-5-14,56,47,39,35,30,26,78,55,34,30.04,29.95,10,1,10,0.00
2013-5-15,65,48,33,51,39,30,97,74,33,30.03,29.64,4,0,8,0.09
2013-5-16,77,61,46,50,43,37,100,60,25,29.79,29.59,6,1,11,0.00
2013-5-17,64,54,46,43,40,35,76,59,35,30.19,29.80,5,1,8,0.00
2013-5-18,70,56,42,47,42,35,95,65,28,30.29,30.20,3,0,6,0.00
2013-5-19,67,54,46,54,50,45,99,86,61,30.33,30.19,3,0,4,0.00
2013-5-20,73,62,51,64,58,51,100,90,70,30.18,29.91,3,0,5,0.01
2013-5-21,73,57,48,65,55,47,99,93,71,30.05,29.88,4,1,7,0.40
2013-5-22,60,53,49,58,52,49,100,98,93,29.97,29.86,2,0,3,1.18
2013-5-23,69,59,50,68,59,50,100,100,96,29.91,29.75,2,0,6,0.46
2013-5-24,68,59,45,66,57,45,100,95,81,29.82,29.61,0,0,0,0.46
2013-5-25,48,43,33,47,43,32,100,98,94,29.82,29.70,5,0,7,1.27
2013-5-26,53,44,33,42,38,33,99,83,62,30.05,29.67,4,1,7,0.45
2013-5-27,66,53,38,44,38,34,96,62,32,30.17,30.06,0,0,5,0.00
2013-5-28,72,56,41,48,42,37,93,63,33,30.24,30.14,0,0,0,0.00
2013-5-29,60,56,52,60,55,47,100,97,83,30.15,29.98,0,0,0,0.15
2013-5-30,84,71,57,69,63,57,100,80,49,30.05,29.97,0,0,0,0.07
2013-5-31,90,77,63,70,65,63,98,70,41,30.05,29.88,0,0,1,0.00
2013-6-1,93,80,68,70,66,62,90,65,35,29.91,29.78,4,0,5,0.00
2013-6-2,90,75,65,73,67,64,100,79,44,29.77,29.62,4,1,13,1.01
2013-6-3,76,66,54,67,61,48,100,84,51,29.79,29.70,4,0,9,1.09
2013-6-4,64,57,49,49,44,42,86,65,49,30.07,29.79,5,1,10,0.00
2013-6-5,72,59,48,53,45,38,87,63,31,30.17,30.06,2,0,6,0.00
2013-6-6,70,60,51,55,50,44,92,72,50,30.18,30.08,2,0,4,0.01
2013-6-7,54,51,48,53,50,48,99,97,92,30.09,29.87,2,0,3,0.72
2013-6-8,72,60,50,63,56,50,100,89,72,29.98,29.66,4,0,6,1.22
2013-6-9,76,64,53,59,56,53,99,75,49,30.14,29.99,4,0,6,0.00
2013-6-10,67,59,53,58,56,52,99,88,71,30.18,30.01,2,0,3,0.21
2013-6-11,58,55,52,56,54,52,100,97,88,30.01,29.57,2,0,3,1.15
2013-6-12,65,59,53,57,54,53,100,86,69,29.80,29.55,5,0,8,0.25
2013-6-13,65,57,50,59,54,49,99,89,67,29.79,29.70,2,0,4,0.17
2013-6-14,72,60,50,58,54,50,100,81,50,29.76,29.66,1,0,3,0.27
2013-6-15,74,64,56,54,48,43,78,58,34,29.90,29.77,3,1,5,0.00
2013-6-16,74,62,51,61,55,49,92,79,51,29.90,29.68,2,0,8,0.00
2013-6-17,82,65,57,63,60,56,99,84,45,29.86,29.74,3,0,8,0.36
2013-6-18,61,58,55,61,57,54,100,94,83,29.95,29.85,1,0,4,0.06
2013-6-19,71,61,51,55,50,45,99,70,43,30.13,29.91,1,0,4,0.00
2013-6-20,76,62,48,56,50,45,93,67,41,30.25,30.13,4,0,5,0.00
2013-6-21,81,67,55,61,55,46,96,69,36,30.23,30.17,4,0,5,0.00
2013-6-22,83,70,56,69,62,55,95,78,57,30.18,30.06,3,0,7,0.00
2013-6-23,86,72,63,75,68,62,99,88,65,30.11,29.91,2,0,5,0.03
2013-6-24,90,76,68,73,69,67,100,83,51,29.95,29.82,1,0,6,0.07
2013-6-25,88,75,67,73,69,65,99,82,58,29.89,29.68,3,0,8,0.14
2013-6-26,75,68,61,72,68,61,100,98,87,29.83,29.68,1,0,3,0.69
2013-6-27,69,63,59,67,62,59,100,98,95,29.83,29.74,1,0,2,0.02
2013-6-28,70,62,54,70,62,54,100,100,99,29.74,29.47,3,0,5,0.73
2013-6-29,82,72,65,72,68,65,100,90,70,29.66,29.49,5,0,8,0.00
2013-6-30,83,72,66,74,69,66,100,90,66,29.88,29.66,3,0,5,0.09
2013-7-1,75,70,67,73,70,67,100,99,88,30.03,29.89,1,0,2,0.62
2013-7-2,74,66,60,74,66,60,100,100,94,30.19,30.02,2,0,3,0.12
2013-7-3,84,71,60,76,68,60,100,91,69,30.18,30.08,3,0,8,0.20
2013-7-4,90,79,69,76,73,69,100,84,60,30.16,30.02,3,0,5,0.00
2013-7-5,91,80,72,77,73,71,97,80,59,30.10,29.97,4,0,7,0.00
2013-7-6,85,77,71,73,70,66,97,80,61,30.02,29.93,2,0,8,0.00
2013-7-7,87,75,66,76,69,65,100,84,54,29.97,29.86,2,0,4,0.37
2013-7-8,80,71,62,75,70,62,100,98,84,30.04,29.87,2,0,3,0.63
2013-7-9,72,66,62,69,65,62,100,97,89,30.08,30.02,1,0,2,0.14
2013-7-10,75,68,63,73,68,63,100,99,92,30.04,29.75,2,0,5,0.36
2013-7-11,79,72,67,75,71,64,100,94,81,29.91,29.72,4,0,4,0.02
2013-7-12,78,69,61,65,62,58,91,78,60,30.18,29.92,2,0,3,0.00
2013-7-13,77,69,59,71,64,57,97,84,66,30.29,30.18,1,0,3,0.00
2013-7-14,86,75,66,75,70,66,100,87,64,30.27,30.16,2,0,4,0.00
2013-7-15,89,78,68,74,70,64,100,79,56,30.17,30.05,1,0,4,0.00
2013-7-16,89,77,67,74,70,65,95,78,55,30.12,30.08,2,0,3,0.00
2013-7-17,90,78,67,75,71,66,99,80,56,30.14,29.91,2,0,7,0.00
2013-7-18,91,77,69,77,71,69,100,84,58,29.98,29.90,2,0,4,1.01
2013-7-19,92,79,69,81,74,69,100,85,60,29.90,29.65,3,0,9,1.02
2013-7-20,87,75,66,73,69,65,100,83,62,29.76,29.60,5,0,9,0.21
2013-7-21,78,70,63,68,65,63,99,86,68,29.96,29.76,2,0,4,0.00
2013-7-22,74,66,63,70,65,63,100,96,84,30.00,29.87,2,0,2,0.03
2013-7-23,71,66,63,69,66,63,100,99,93,29.87,29.52,1,0,2,2.32
2013-7-24,79,69,56,71,64,50,100,85,68,29.95,29.55,2,0,5,0.00
2013-7-25,70,60,52,61,54,48,92,80,66,30.09,29.95,1,0,3,0.00
2013-7-26,69,63,60,69,62,58,100,96,89,30.07,29.92,1,0,3,0.43
2013-7-27,81,69,60,68,62,58,97,81,52,30.02,29.95,3,0,5,0.00
2013-7-28,78,67,60,70,65,60,100,93,74,29.99,29.94,2,0,3,0.07
2013-7-29,78,67,62,73,66,62,100,97,77,30.01,29.92,1,0,6,0.19
2013-7-30,77,67,59,63,59,55,100,77,49,30.07,30.00,2,0,8,0.00
2013-7-31,79,68,61,67,60,57,96,76,49,30.11,30.00,1,0,5,0.00
2013-8-1,80,68,58,66,62,58,100,85,57,30.01,29.84,2,0,6,0.11
2013-8-2,78,68,62,69,63,56,100,85,49,29.84,29.74,2,0,4,0.98
2013-8-3,76,67,58,63,59,55,96,77,51,29.82,29.73,4,0,7,0.00
2013-8-4,75,64,57,60,57,53,91,77,55,29.86,29.75,2,0,7,0.00
2013-8-5,70,60,54,53,48,39,92,67,35,30.02,29.86,3,1,8,0.00
2013-8-6,76,61,48,59,52,46,95,73,42,30.13,30.03,1,0,4,0.00
2013-8-7,77,64,53,61,56,51,98,77,49,30.16,30.07,2,0,5,0.00
2013-8-8,80,70,60,71,65,57,96,85,71,30.08,29.96,3,0,7,0.00
2013-8-9,71,70,67,71,70,67,100,99,95,29.97,29.68,3,0,7,0.78
2013-8-10,78,69,58,68,61,53,100,78,46,29.98,29.74,4,0,8,0.00
2013-8-11,76,64,52,61,55,50,93,75,48,30.05,29.96,4,0,4,0.00
2013-8-12,78,66,56,65,58,54,94,77,54,29.99,29.88,3,0,4,0.00
2013-8-13,70,66,60,67,63,58,98,91,86,29.89,29.65,4,0,5,0.00
2013-8-14,71,63,55,63,56,51,100,78,57,29.91,29.63,4,1,9,0.00
2013-8-15,72,60,49,56,52,48,97,78,52,30.08,29.92,3,0,6,0.00
2013-8-16,77,63,51,61,55,50,96,77,45,30.16,30.07,1,0,5,0.00
2013-8-17,78,65,54,62,57,53,99,79,45,30.25,30.16,1,0,5,0.00
2013-8-18,77,66,56,66,61,56,99,85,62,30.24,30.04,1,0,3,0.00
2013-8-19,78,68,57,66,61,56,98,80,59,30.04,29.90,2,0,4,0.00
2013-8-20,82,70,60,67,63,59,98,79,53,30.06,29.94,2,0,3,0.00
2013-8-21,86,72,61,70,64,60,99,79,52,30.11,29.97,2,0,5,0.00
2013-8-22,87,74,63,70,66,61,96,78,51,29.98,29.77,5,0,7,0.00
2013-8-23,76,68,58,67,57,49,94,70,47,30.10,29.77,2,0,5,0.00
2013-8-24,75,62,49,58,51,47,96,71,41,30.30,30.11,1,0,3,0.00
2013-8-25,79,64,50,62,55,49,98,76,43,30.34,30.14,3,0,5,0.00
2013-8-26,78,68,60,69,64,58,99,88,70,30.13,29.83,3,0,6,0.09
2013-8-27,82,72,66,71,67,65,99,86,60,29.86,29.80,0,0,2,0.00
2013-8-28,85,70,63,72,66,63,100,90,59,29.95,29.81,3,0,4,0.09
2013-8-29,63,62,58,63,61,57,100,98,93,30.05,29.92,1,0,3,0.09
2013-8-30,79,68,57,71,64,57,100,90,68,30.00,29.77,2,0,4,0.00
2013-8-31,77,71,67,74,70,66,99,95,88,29.79,29.72,2,0,4,0.00
2013-9-1,82,72,67,74,70,67,100,94,72,29.84,29.74,2,0,4,0.05
2013-9-2,72,69,66,72,69,66,100,100,100,29.83,29.68,1,0,4,0.38
2013-9-3,76,68,61,69,65,58,100,93,76,29.76,29.66,1,0,4,0.02
2013-9-4,76,65,56,61,58,55,99,79,48,29.87,29.75,3,0,6,0.00
2013-9-5,67,58,47,58,50,42,99,78,46,30.13,29.83,3,0,3,0.00
2013-9-6,66,53,40,51,44,39,96,73,46,30.23,30.06,2,0,5,0.00
2013-9-7,76,60,46,61,51,45,95,77,41,30.05,29.82,3,0,6,0.01
2013-9-8,65,58,48,58,50,41,90,73,52,30.06,29.72,5,0,7,0.01
2013-9-9,68,54,41,53,45,39,96,75,47,30.21,30.06,3,0,6,0.00
2013-9-10,70,61,51,69,60,49,100,96,86,30.12,30.00,1,0,4,0.09
2013-9-11,90,77,67,78,72,67,100,88,60,30.03,29.84,3,0,8,0.26
2013-9-12,77,69,65,74,68,65,100,99,86,29.88,29.64,3,0,4,1.85
2013-9-13,72,64,55,68,62,53,100,94,80,29.73,29.55,2,0,4,0.46
2013-9-14,64,56,52,55,52,49,94,86,72,30.02,29.72,2,0,4,0.00
2013-9-15,67,56,45,55,50,44,99,83,53,30.13,30.01,2,0,5,0.00
2013-9-16,63,54,42,54,48,36,94,81,65,30.25,29.98,2,0,8,0.00
2013-9-17,60,48,35,49,41,34,96,78,51,30.42,30.26,2,0,4,0.00
2013-9-18,70,54,41,55,47,41,99,79,46,30.31,30.11,1,0,5,0.00
2013-9-19,75,60,46,60,52,45,97,79,43,30.12,30.01,2,0,4,0.00
2013-9-20,76,61,50,62,56,49,100,85,53,30.08,29.98,1,0,3,0.00
2013-9-21,72,61,51,64,58,51,100,89,66,29.99,29.69,5,1,7,0.00
2013-9-22,67,60,47,65,56,43,100,85,64,29.80,29.57,3,1,8,0.86
2013-9-23,55,48,43,44,41,39,89,78,63,29.98,29.80,5,1,9,0.00
2013-9-24,60,50,43,45,42,39,91,75,56,29.96,29.82,5,1,9,0.00
2013-9-25,65,54,47,52,48,44,92,79,61,29.98,29.85,3,0,9,0.00
2013-9-26,64,54,45,53,48,43,96,81,59,30.13,29.98,1,0,2,0.00
2013-9-27,64,56,50,56,52,50,98,86,67,30.25,30.13,1,0,3,0.00
2013-9-28,71,57,47,57,52,47,100,85,51,30.33,30.25,3,0,5,0.00
2013-9-29,68,54,44,55,49,44,100,87,59,30.25,30.10,1,0,4,0.00
2013-9-30,68,52,41,55,48,41,100,88,60,30.11,29.96,2,0,3,0.00
2013-10-1,72,58,44,58,52,44,100,83,49,29.96,29.83,1,0,3,0.00
2013-10-2,76,64,53,62,57,52,98,80,59,29.91,29.79,3,0,7,0.00
2013-10-3,72,62,53,57,52,49,93,73,43,30.06,29.91,2,0,3,0.02
2013-10-4,64,56,49,59,54,48,96,90,68,30.08,30.02,1,0,2,0.01
2013-10-5,63,58,55,57,53,47,96,84,69,30.11,30.04,1,0,2,0.00
2013-10-6,57,51,46,56,49,43,100,93,70,30.24,30.10,2,0,4,0.07
2013-10-7,71,59,51,69,58,51,100,98,84,30.14,29.75,4,0,10,0.52
2013-10-8,60,52,43,50,43,38,97,74,47,30.38,29.86,5,1,8,0.52
2013-10-9,59,46,37,47,41,36,98,83,53,30.48,30.37,2,0,3,0.00
2013-10-10,59,47,37,50,45,37,100,90,70,30.37,30.19,1,0,2,0.00
2013-10-11,68,54,43,54,48,42,99,82,56,30.18,30.11,1,0,3,0.00
2013-10-12,54,51,44,52,49,44,98,93,81,30.41,30.16,2,0,4,0.00
2013-10-13,55,48,42,49,45,42,99,91,73,30.45,30.38,1,0,3,0.00
2013-10-14,62,50,38,50,44,38,100,83,57,30.39,30.22,2,0,4,0.00
2013-10-15,62,56,49,55,51,45,98,85,77,30.26,30.17,2,0,4,0.00
2013-10-16,60,52,47,52,50,46,100,91,65,30.16,29.90,2,0,3,0.00
2013-10-17,71,57,47,57,50,47,100,80,44,29.89,29.68,3,0,7,0.00
2013-10-18,63,56,47,59,49,39,100,81,54,29.87,29.56,7,1,10,0.27
2013-10-19,64,52,42,47,42,38,89,71,51,29.94,29.72,2,0,5,0.00
2013-10-20,58,50,42,48,40,34,97,70,46,29.98,29.66,5,1,11,0.00
2013-10-21,63,50,37,44,40,35,92,70,47,30.08,29.96,3,0,5,0.00
2013-10-22,58,49,41,51,44,36,97,83,68,29.95,29.69,4,0,5,0.00
2013-10-23,51,43,34,36,33,31,90,69,51,29.76,29.57,2,0,3,0.00
2013-10-24,49,42,35,36,31,29,87,68,50,29.85,29.62,4,1,13,0.00
2013-10-25,45,38,32,33,29,26,93,72,49,30.11,29.86,4,1,10,0.00
2013-10-26,49,40,29,35,29,26,93,68,47,30.11,29.85,3,0,10,0.00
2013-10-27,52,44,36,36,33,28,81,65,48,30.02,29.77,4,1,8,0.00
2013-10-28,54,40,32,37,30,22,89,69,52,30.34,30.02,5,1,10,0.00
2013-10-29,44,33,24,26,20,16,87,63,35,30.44,30.33,2,0,6,0.00
2013-10-30,47,36,29,35,29,19,88,75,63,30.35,30.19,3,0,5,0.00
2013-10-31,57,44,34,57,43,33,100,96,87,30.24,29.75,3,0,7,0.11
2013-11-1,65,59,53,62,56,46,100,90,74,29.74,29.37,6,2,19,0.27
2013-11-2,60,51,42,47,44,41,97,77,53,29.72,29.57,3,0,9,0.06
2013-11-3,44,36,28,42,25,15,93,67,44,30.41,29.73,7,2,9,0.06
2013-11-4,38,30,23,20,16,14,78,58,38,30.70,30.41,4,1,6,0.00
2013-11-5,44,34,24,32,25,19,87,71,53,30.71,30.49,3,0,10,0.00
2013-11-6,58,46,36,45,40,31,91,78,60,30.49,29.99,3,1,13,0.00
2013-11-7,58,49,38,56,45,32,96,87,73,29.99,29.66,6,1,10,0.06
2013-11-8,42,35,29,33,27,23,93,72,56,30.04,29.77,5,1,11,0.02
2013-11-9,39,35,31,29,24,21,80,63,51,30.16,30.02,6,1,10,0.00
2013-11-10,43,38,33,40,35,28,99,88,74,30.01,29.71,5,0,10,0.09
2013-11-11,47,40,36,32,28,26,77,63,44,30.06,29.81,9,2,14,0.00
2013-11-12,42,30,25,33,20,14,84,66,58,30.14,29.84,6,2,12,0.00
2013-11-13,31,25,20,15,13,10,73,61,46,30.27,30.10,4,1,11,0.00
2013-11-14,46,35,23,30,23,14,73,63,51,30.10,30.02,4,0,10,0.00
2013-11-15,53,42,33,23,20,17,62,43,29,30.16,30.08,3,0,5,0.00
2013-11-16,55,43,34,32,27,21,71,55,35,30.30,30.15,1,0,3,0.00
2013-11-17,51,42,34,51,40,28,100,94,68,30.30,29.84,2,0,3,0.04
2013-11-18,60,54,43,59,46,33,100,78,47,29.83,29.48,6,1,11,0.34
2013-11-19,44,34,28,33,21,15,69,58,48,30.27,29.60,9,3,17,0.00
2013-11-20,36,30,25,17,14,12,66,54,37,30.61,30.28,9,2,12,0.00
2013-11-21,44,32,20,26,16,11,78,55,28,30.63,30.35,2,0,5,0.00
2013-11-22,38,37,34,38,34,26,100,92,69,30.34,29.79,1,0,2,0.15
2013-11-23,40,34,24,41,25,14,100,71,45,29.90,29.73,10,2,12,0.00
2013-11-24,24,19,15,20,4,-4,86,53,38,30.15,29.74,16,4,23,0.00
2013-11-25,27,20,13,13,0,-9,59,42,26,30.34,30.15,10,2,16,0.00
2013-11-26,33,29,25,31,23,13,97,79,58,30.30,30.07,4,0,4,0.00
2013-11-27,53,42,32,53,41,30,100,98,87,30.06,29.23,8,2,16,1.26
2013-11-28,33,26,18,30,14,6,88,63,44,30.39,29.38,8,2,16,0.08
2013-11-29,26,19,13,10,8,5,79,62,41,30.75,30.39,6,1,8,0.00
2013-11-30,29,19,8,20,12,5,90,74,53,30.80,30.43,3,0,6,0.00
2013-12-1,34,30,26,33,28,20,99,92,77,30.43,30.02,1,0,3,0.01
2013-12-2,36,34,32,36,34,32,100,99,98,30.02,29.91,2,0,4,0.02
2013-12-3,44,35,32,38,33,29,100,90,65,29.92,29.85,4,1,8,0.00
2013-12-4,38,32,29,30,26,23,93,78,66,30.18,29.91,5,1,10,0.00
2013-12-5,37,34,28,37,32,25,100,92,79,30.21,29.89,1,0,2,0.02
2013-12-6,46,40,31,46,38,29,100,92,74,30.13,29.84,7,1,8,0.04
2013-12-7,33,29,22,30,22,15,97,76,56,30.42,30.05,6,1,12,0.01
2013-12-8,26,23,20,18,14,12,80,70,56,30.56,30.42,3,0,6,0.01
2013-12-9,30,26,22,30,24,15,98,92,70,30.50,29.86,3,1,5,0.00
2013-12-10,31,27,18,30,25,14,99,94,84,29.93,29.76,2,0,4,0.00
2013-12-11,29,21,15,17,14,13,95,78,58,30.14,29.94,4,0,11,0.00
2013-12-12,20,14,10,18,5,-1,91,68,44,30.24,30.01,5,1,10,0.00
2013-12-13,22,12,5,16,6,-5,89,77,62,30.41,29.94,5,1,9,0.00
2013-12-14,11,6,1,8,-2,-7,91,69,48,30.61,30.23,4,1,6,0.00
2013-12-15,25,18,10,24,16,8,95,92,89,30.22,29.46,6,2,8,0.00
2013-12-16,23,16,5,16,8,-2,94,72,42,30.18,29.69,5,1,10,0.00
2013-12-17,12,6,-6,9,1,-9,91,79,59,30.26,30.00,4,0,6,0.00
2013-12-18,29,21,12,20,16,9,92,83,66,30.02,29.89,0,0,0,0.00
2013-12-19,36,29,22,26,22,19,89,77,60,30.08,29.93,4,0,7,0.01
2013-12-20,39,36,30,35,30,25,92,80,70,30.10,29.89,2,0,4,0.11
2013-12-21,50,42,37,45,39,32,99,86,73,29.92,29.83,2,0,5,0.16
2013-12-22,44,33,29,44,33,29,99,99,98,30.03,29.78,5,1,8,0.12
2013-12-23,35,31,29,35,31,29,100,100,98,30.09,29.96,3,0,7,0.30
2013-12-24,33,27,18,33,20,11,99,75,60,30.18,30.04,5,1,9,0.01
2013-12-25,17,12,5,11,2,-4,79,67,52,30.53,30.19,8,1,14,0.00
2013-12-26,25,20,11,23,16,5,95,85,69,30.49,30.09,4,0,7,0.00
2013-12-27,30,24,19,22,20,17,95,83,69,30.23,30.16,3,0,6,0.00
2013-12-28,40,30,19,32,25,17,93,83,67,30.17,29.95,3,0,5,0.05
2013-12-29,39,33,29,32,30,27,99,90,73,30.00,29.49,3,0,6,0.50
2013-12-30,34,26,7,33,23,-1,99,87,68,30.15,29.51,6,1,10,0.27
2013-12-31,17,9,2,12,2,-5,89,73,55,30.15,30.01,3,0,4,0.00
2014-1-1,21,14,11,9,7,5,87,74,57,30.38,30.14,4,0,10,0.00
2014-1-2,12,5,-4,8,1,-7,89,86,76,30.37,29.92,5,2,10,0.00